Time;durP1;ratioP1;P1;durP2;ratioP2;P2;SDS_P1;SDS_P2;PMS_P1;PMS_P2;Temp;Humidity;BMP_temperature;BMP_pressure;BME280_temperature;BME280_humidity;BME280_pressure;Samples;Min_cycle;Max_cycle;Signal;HPM_P1;HPM_P2
2022/01/02 00:00:14;;;;;;;4.17;1.00;;;30.60;99.90;;;;;;5072207;28;20282;-68
2022/01/02 00:02:43;;;;;;;3.72;0.90;;;30.70;99.90;;;;;;5071776;28;20236;-68
2022/01/02 00:05:14;;;;;;;6.90;1.33;;;30.50;99.90;;;;;;5071648;28;20210;-69
2022/01/02 00:07:50;;;;;;;3.13;1.05;;;30.10;99.90;;;;;;5071687;28;20256;-67
2022/01/02 00:10:22;;;;;;;3.43;0.93;;;30.40;99.90;;;;;;5071078;28;20714;-67
2022/01/02 00:12:59;;;;;;;4.10;1.05;;;30.80;99.90;;;;;;5071342;28;20184;-68
2022/01/02 00:15:27;;;;;;;6.07;1.17;;;31.40;99.90;;;;;;5071717;28;20180;-68
2022/01/02 00:17:57;;;;;;;2.20;0.60;;;31.70;99.90;;;;;;5071002;28;20199;-68
2022/01/02 00:20:33;;;;;;;2.03;0.57;;;31.80;99.90;;;;;;5071317;28;20211;-66
2022/01/02 00:23:07;;;;;;;3.83;0.80;;;32.00;99.90;;;;;;5071223;28;20175;-67
2022/01/02 00:25:41;;;;;;;8.45;1.10;;;32.40;99.90;;;;;;5071561;28;20290;-69
2022/01/02 00:28:11;;;;;;;2.85;0.80;;;32.90;99.90;;;;;;5069756;28;20215;-68
2022/01/02 00:30:40;;;;;;;2.45;0.90;;;33.20;99.90;;;;;;5069766;28;20218;-68
2022/01/02 00:33:08;;;;;;;4.03;0.70;;;32.50;99.90;;;;;;5069698;28;20179;-67
2022/01/02 00:35:37;;;;;;;4.03;0.82;;;32.40;99.90;;;;;;5071034;28;20197;-68
2022/01/02 00:38:22;;;;;;;6.72;1.15;;;31.70;99.90;;;;;;5071512;28;20186;-68
2022/01/02 00:40:53;;;;;;;3.78;0.88;;;31.50;99.90;;;;;;5070875;28;20188;-67
2022/01/02 00:43:34;;;;;;;2.85;0.70;;;31.70;99.90;;;;;;5071852;28;20543;-67
2022/01/02 00:46:09;;;;;;;12.00;1.48;;;31.80;99.90;;;;;;5075273;28;20237;-69
2022/01/02 00:48:42;;;;;;;2.40;0.50;;;32.00;99.90;;;;;;5075146;28;20279;-68
2022/01/02 00:51:34;;;;;;;4.35;0.50;;;32.50;99.90;;;;;;5055053;28;20184;-68
2022/01/02 00:54:07;;;;;;;1.98;0.70;;;33.10;99.90;;;;;;5055053;28;20181;-69
2022/01/02 00:56:40;;;;;;;2.67;0.70;;;33.60;99.90;;;;;;5060947;28;20172;-67
2022/01/02 00:59:26;;;;;;;2.63;0.82;;;33.90;99.90;;;;;;5074536;28;20191;-68
2022/01/02 01:02:02;;;;;;;2.42;0.65;;;34.00;99.90;;;;;;5074876;28;20548;-67
2022/01/02 01:04:38;;;;;;;2.00;0.52;;;33.40;99.90;;;;;;5074898;28;20234;-67
2022/01/02 01:07:06;;;;;;;2.33;0.77;;;33.90;99.90;;;;;;5074430;28;20242;-68
2022/01/02 01:09:34;;;;;;;4.07;0.55;;;34.10;99.90;;;;;;5074589;28;20282;-68
2022/01/02 01:12:04;;;;;;;3.65;0.95;;;34.10;99.90;;;;;;5074686;28;20187;-69
2022/01/02 01:14:32;;;;;;;7.68;0.85;;;33.80;99.90;;;;;;5074569;28;20229;-68
2022/01/02 01:17:00;;;;;;;5.70;0.65;;;33.80;99.90;;;;;;5074818;28;20573;-67
2022/01/02 01:19:28;;;;;;;2.35;0.70;;;33.30;99.90;;;;;;5073231;28;20219;-68
2022/01/02 01:21:55;;;;;;;4.47;0.70;;;33.30;99.90;;;;;;5074645;28;20179;-67
2022/01/02 01:24:24;;;;;;;2.70;1.08;;;33.10;99.90;;;;;;5074339;28;20183;-67
2022/01/02 01:26:53;;;;;;;3.67;0.77;;;32.70;99.90;;;;;;5074368;28;20290;-66
2022/01/02 01:29:21;;;;;;;2.60;0.80;;;32.90;99.90;;;;;;5074184;28;20188;-67
2022/01/02 01:31:50;;;;;;;2.80;0.80;;;33.60;99.90;;;;;;5074258;28;20229;-68
2022/01/02 01:34:18;;;;;;;1.70;0.70;;;33.60;99.90;;;;;;5074390;28;20267;-68
2022/01/02 01:36:45;;;;;;;4.25;0.90;;;34.10;99.90;;;;;;5074264;28;20191;-68
2022/01/02 01:39:13;;;;;;;1.80;0.90;;;34.50;99.90;;;;;;5074360;28;20302;-67
2022/01/02 01:41:41;;;;;;;5.30;0.90;;;34.40;99.90;;;;;;5074180;28;20175;-67
2022/01/02 01:46:41;;;;;;;4.18;0.90;;;34.00;99.90;;;;;;5073963;28;20222;-68
2022/01/02 01:49:26;;;;;;;5.82;0.80;;;33.50;99.90;;;;;;5074162;28;20597;-67
2022/01/02 01:51:54;;;;;;;3.92;1.23;;;33.30;99.90;;;;;;5073682;28;20555;-67
2022/01/02 01:54:23;;;;;;;5.07;1.20;;;33.70;99.90;;;;;;5074082;28;20180;-67
2022/01/02 01:56:52;;;;;;;2.50;0.75;;;33.40;99.90;;;;;;5073273;28;20728;-68
2022/01/02 01:59:21;;;;;;;4.88;1.00;;;33.40;99.90;;;;;;5073915;28;20184;-68
2022/01/02 02:01:50;;;;;;;3.78;1.05;;;33.10;99.90;;;;;;5073549;28;20184;-69
2022/01/02 02:04:18;;;;;;;4.65;0.90;;;33.20;99.90;;;;;;5073929;28;20180;-69
2022/01/02 02:06:46;;;;;;;5.63;1.73;;;33.20;99.90;;;;;;5073121;28;20267;-67
2022/01/02 02:09:14;;;;;;;7.95;1.42;;;33.40;99.90;;;;;;5073697;28;20259;-67
2022/01/02 02:11:42;;;;;;;6.15;0.90;;;33.20;99.90;;;;;;5073244;28;20659;-67
2022/01/02 02:14:10;;;;;;;5.47;1.10;;;33.40;99.90;;;;;;5073624;28;20176;-68
2022/01/02 02:16:38;;;;;;;6.05;1.38;;;33.60;99.90;;;;;;5072853;28;20236;-67
2022/01/02 02:19:06;;;;;;;5.75;1.33;;;33.80;99.90;;;;;;5073087;28;20261;-67
2022/01/02 02:21:36;;;;;;;5.72;1.05;;;33.20;99.90;;;;;;5073252;28;20183;-68
2022/01/02 02:24:08;;;;;;;7.38;1.15;;;33.30;99.90;;;;;;5073388;28;20207;-67
2022/01/02 02:26:38;;;;;;;5.85;1.13;;;33.20;99.90;;;;;;5073290;28;20669;-68
2022/01/02 02:29:07;;;;;;;4.72;0.90;;;32.90;99.90;;;;;;5073233;28;20180;-68
2022/01/02 02:31:35;;;;;;;3.60;1.25;;;32.90;99.90;;;;;;5073295;28;20237;-67
2022/01/02 02:34:02;;;;;;;3.97;1.15;;;33.10;99.90;;;;;;5072886;28;20179;-68
2022/01/02 02:36:30;;;;;;;5.88;1.40;;;33.70;99.90;;;;;;5071991;28;20197;-67
2022/01/02 02:38:58;;;;;;;2.83;0.88;;;33.80;99.90;;;;;;5073143;28;20188;-67
2022/01/02 02:41:31;;;;;;;5.53;1.15;;;33.70;99.90;;;;;;5071970;28;20229;-67
2022/01/02 02:44:06;;;;;;;3.42;1.02;;;33.50;99.90;;;;;;5073227;28;20172;-68
2022/01/02 02:49:20;;;;;;;3.90;0.80;;;33.70;99.90;;;;;;5073300;28;20306;-67
2022/01/02 02:51:58;;;;;;;6.43;1.33;;;33.80;99.90;;;;;;5072574;28;20195;-68
2022/01/02 02:54:29;;;;;;;2.40;1.10;;;33.60;99.90;;;;;;5073020;28;20194;-68
2022/01/02 02:57:00;;;;;;;6.38;1.50;;;33.80;99.90;;;;;;5072772;28;20245;-68
2022/01/02 02:59:31;;;;;;;3.00;1.02;;;34.30;99.90;;;;;;5072892;28;20727;-68
2022/01/02 03:02:00;;;;;;;2.95;1.02;;;33.80;99.90;;;;;;5072672;28;20188;-68
2022/01/02 03:04:27;;;;;;;5.28;1.02;;;33.20;99.90;;;;;;5072256;28;20211;-67
2022/01/02 03:06:56;;;;;;;6.57;1.33;;;33.10;99.90;;;;;;5071442;28;20219;-68
2022/01/02 03:12:00;;;;;;;3.13;1.10;;;33.70;99.90;;;;;;5072356;28;20288;-67
2022/01/02 03:14:28;;;;;;;6.50;1.00;;;33.80;99.90;;;;;;5072632;28;20180;-68
2022/01/02 03:16:55;;;;;;;5.75;1.23;;;33.10;99.90;;;;;;5072418;28;20207;-68
2022/01/02 03:19:23;;;;;;;6.75;1.20;;;32.80;99.90;;;;;;5072393;28;20168;-68
2022/01/02 03:21:51;;;;;;;4.93;1.38;;;33.00;99.90;;;;;;5071950;28;20190;-68
2022/01/02 03:24:19;;;;;;;5.20;1.30;;;33.30;99.90;;;;;;5072246;28;20172;-68
2022/01/02 03:26:46;;;;;;;4.72;1.00;;;33.40;99.90;;;;;;5072157;28;20210;-69
2022/01/02 03:29:14;;;;;;;6.10;1.20;;;33.20;99.90;;;;;;5072041;28;20217;-69
2022/01/02 03:31:42;;;;;;;12.80;1.58;;;33.10;99.90;;;;;;5072143;28;20607;-67
2022/01/02 03:34:10;;;;;;;3.72;1.13;;;33.80;99.90;;;;;;5071810;28;20182;-68
2022/01/02 03:36:37;;;;;;;4.93;1.08;;;33.90;99.90;;;;;;5071915;28;20226;-70
2022/01/02 03:39:05;;;;;;;4.20;1.10;;;33.40;99.90;;;;;;5071728;28;20283;-69
2022/01/02 03:41:33;;;;;;;4.63;1.23;;;33.60;99.90;;;;;;5072144;28;20172;-69
2022/01/02 03:44:00;;;;;;;6.38;1.20;;;34.10;99.90;;;;;;5071861;28;20203;-68
2022/01/02 03:46:28;;;;;;;6.05;1.52;;;34.20;99.90;;;;;;5071818;28;20176;-68
2022/01/02 03:48:56;;;;;;;7.40;2.20;;;34.20;99.90;;;;;;5071710;28;20176;-68
2022/01/02 03:51:24;;;;;;;4.78;1.40;;;34.10;99.90;;;;;;5071670;28;20510;-68
2022/01/02 03:53:51;;;;;;;6.68;1.20;;;34.20;99.90;;;;;;5071865;28;20168;-68
2022/01/02 03:56:19;;;;;;;4.47;1.35;;;34.30;99.90;;;;;;5071872;28;20198;-68
2022/01/02 03:58:47;;;;;;;9.85;1.83;;;34.50;99.90;;;;;;5071501;28;20211;-67
2022/01/02 04:01:14;;;;;;;4.18;1.17;;;35.10;99.90;;;;;;5071854;28;20634;-68
2022/01/02 04:03:42;;;;;;;5.63;1.35;;;35.20;99.90;;;;;;5071691;28;20183;-67
2022/01/02 04:06:10;;;;;;;6.38;1.33;;;34.80;99.90;;;;;;5071202;28;20216;-69
2022/01/02 04:08:38;;;;;;;5.70;1.40;;;34.50;99.90;;;;;;5071882;28;20176;-69
2022/01/02 04:11:05;;;;;;;4.47;1.40;;;34.00;99.90;;;;;;5070312;28;20641;-69
2022/01/02 04:13:33;;;;;;;4.07;1.23;;;34.70;99.90;;;;;;5071254;28;20282;-70
2022/01/02 04:16:01;;;;;;;6.22;1.58;;;35.10;99.90;;;;;;5071590;28;20338;-69
2022/01/02 04:18:29;;;;;;;5.90;1.15;;;35.30;99.90;;;;;;5071427;28;20188;-68
2022/01/02 04:20:56;;;;;;;5.78;1.27;;;34.90;99.90;;;;;;5071967;28;20178;-69
2022/01/02 04:23:25;;;;;;;7.13;1.38;;;34.80;99.90;;;;;;5071565;28;20184;-69
2022/01/02 04:25:53;;;;;;;5.43;1.20;;;35.10;99.90;;;;;;5080877;28;20266;-68
2022/01/02 04:28:21;;;;;;;4.55;1.00;;;35.70;99.90;;;;;;5092171;28;20214;-69
2022/01/02 04:30:48;;;;;;;6.85;1.20;;;35.30;99.90;;;;;;5073652;28;20180;-68
2022/01/02 04:33:16;;;;;;;8.35;1.30;;;34.30;99.90;;;;;;5072601;28;20256;-68
2022/01/02 04:35:44;;;;;;;6.13;1.42;;;34.70;99.90;;;;;;5071837;28;20267;-68
2022/01/02 04:38:13;;;;;;;4.97;1.23;;;34.60;99.90;;;;;;5071727;28;20180;-68
2022/01/02 04:40:41;;;;;;;7.32;1.80;;;34.00;99.90;;;;;;5071335;28;20180;-69
2022/01/02 04:43:10;;;;;;;6.50;1.90;;;34.10;99.90;;;;;;5070948;28;20188;-68
2022/01/02 04:45:37;;;;;;;5.05;1.40;;;34.30;99.90;;;;;;5071299;28;20281;-69
2022/01/02 04:48:05;;;;;;;6.13;1.13;;;34.70;99.90;;;;;;5071346;28;20568;-68
2022/01/02 04:50:33;;;;;;;5.90;1.10;;;35.00;99.90;;;;;;5071142;28;20176;-68
2022/01/02 04:53:01;;;;;;;4.72;1.38;;;34.50;99.90;;;;;;5070884;28;20180;-68
2022/01/02 04:55:29;;;;;;;8.63;1.50;;;34.20;99.90;;;;;;5071773;28;20172;-69
2022/01/02 04:57:56;;;;;;;5.90;1.33;;;34.20;99.90;;;;;;5071153;28;20279;-69
2022/01/02 05:00:24;;;;;;;6.20;1.00;;;34.70;99.90;;;;;;5070968;28;20263;-69
2022/01/02 05:02:52;;;;;;;5.10;1.35;;;34.70;99.90;;;;;;5070949;28;20188;-68
2022/01/02 05:05:20;;;;;;;6.13;1.52;;;34.90;99.90;;;;;;5070691;28;20242;-69
2022/01/02 05:07:48;;;;;;;5.57;1.20;;;34.70;99.90;;;;;;5071218;28;20698;-67
2022/01/02 05:10:16;;;;;;;7.53;1.42;;;34.40;99.90;;;;;;5070985;28;20633;-68
2022/01/02 05:12:46;;;;;;;7.53;1.83;;;34.30;99.90;;;;;;5071130;28;20200;-67
2022/01/02 05:15:14;;;;;;;7.80;1.25;;;34.70;99.90;;;;;;5070967;28;20215;-69
2022/01/02 05:17:43;;;;;;;5.28;1.40;;;35.10;99.90;;;;;;5070975;28;20175;-69
2022/01/02 05:20:11;;;;;;;6.53;1.15;;;34.50;99.90;;;;;;5071027;28;20187;-68
2022/01/02 05:22:39;;;;;;;7.75;1.40;;;34.10;99.90;;;;;;5069721;28;20264;-68
2022/01/02 05:25:08;;;;;;;8.10;1.15;;;34.50;99.90;;;;;;5070874;28;20180;-69
2022/01/02 05:27:35;;;;;;;4.30;1.15;;;34.40;99.90;;;;;;5070765;28;20239;-68
2022/01/02 05:30:04;;;;;;;4.22;1.30;;;34.10;99.90;;;;;;5070737;28;20191;-68
2022/01/02 05:32:32;;;;;;;5.00;1.48;;;34.00;99.90;;;;;;5074492;28;20168;-68
2022/01/02 05:34:59;;;;;;;5.25;1.42;;;34.20;99.90;;;;;;5074235;28;20629;-68
2022/01/02 05:37:27;;;;;;;5.85;1.23;;;33.80;99.90;;;;;;5073045;28;20237;-69
2022/01/02 05:39:55;;;;;;;7.18;1.30;;;33.70;99.90;;;;;;5074434;28;20630;-69
2022/01/02 05:42:22;;;;;;;4.57;1.23;;;33.70;99.90;;;;;;5074141;28;20552;-68
2022/01/02 05:44:50;;;;;;;6.70;1.45;;;33.80;99.90;;;;;;5073935;28;20225;-67
2022/01/02 05:47:18;;;;;;;6.70;1.33;;;33.70;99.90;;;;;;5073976;28;20619;-68
2022/01/02 05:49:45;;;;;;;6.93;1.38;;;33.70;99.90;;;;;;5073817;28;20198;-68
2022/01/02 05:52:13;;;;;;;4.43;1.77;;;33.20;99.90;;;;;;5073946;28;20625;-68
2022/01/02 05:54:41;;;;;;;5.22;1.35;;;33.20;99.90;;;;;;5073261;28;20592;-67
2022/01/02 05:57:09;;;;;;;4.53;1.30;;;33.50;99.90;;;;;;5073494;28;20168;-68
2022/01/02 05:59:39;;;;;;;5.80;1.20;;;33.70;99.90;;;;;;5073454;28;20176;-68
2022/01/02 06:02:06;;;;;;;5.47;1.27;;;33.70;99.90;;;;;;5073657;28;20302;-68
2022/01/02 06:04:34;;;;;;;10.65;1.75;;;33.50;99.90;;;;;;5073661;28;20184;-68
2022/01/02 06:07:04;;;;;;;7.22;1.50;;;33.30;99.90;;;;;;5073552;28;20239;-67
2022/01/02 06:09:31;;;;;;;8.20;1.27;;;33.20;99.90;;;;;;5073646;28;20176;-70
2022/01/02 06:11:59;;;;;;;9.27;1.45;;;33.20;99.90;;;;;;5073712;28;20172;-67
2022/01/02 06:14:27;;;;;;;7.45;1.65;;;33.10;99.90;;;;;;5073649;28;20183;-68
2022/01/02 06:16:56;;;;;;;9.03;1.83;;;32.90;99.90;;;;;;5073266;28;20179;-68
2022/01/02 06:19:23;;;;;;;9.65;1.55;;;32.60;99.90;;;;;;5073144;28;20183;-68
2022/01/02 06:21:51;;;;;;;5.40;1.40;;;32.60;99.90;;;;;;5072226;28;20629;-67
2022/01/02 06:24:19;;;;;;;6.72;1.25;;;32.40;99.90;;;;;;5073103;28;20180;-67
2022/01/02 06:26:47;;;;;;;5.77;1.53;;;32.60;99.90;;;;;;5072605;28;20196;-67
2022/01/02 06:29:15;;;;;;;5.82;1.23;;;32.70;99.90;;;;;;5073230;28;20168;-68
2022/01/02 06:31:42;;;;;;;7.07;1.35;;;32.50;99.90;;;;;;5073149;28;20626;-68
2022/01/02 06:34:10;;;;;;;5.40;1.23;;;32.60;99.90;;;;;;5072874;28;20708;-68
2022/01/02 06:36:38;;;;;;;7.47;2.27;;;32.80;99.90;;;;;;5072683;28;20268;-68
2022/01/02 06:39:06;;;;;;;8.30;1.60;;;32.60;99.90;;;;;;5072028;28;20558;-68
2022/01/02 06:41:33;;;;;;;8.67;1.70;;;32.10;99.90;;;;;;5073000;28;20238;-68
2022/01/02 06:44:01;;;;;;;9.38;1.58;;;32.00;99.90;;;;;;5072577;28;20180;-69
2022/01/02 06:46:29;;;;;;;6.80;1.93;;;32.00;99.90;;;;;;5072744;28;20676;-68
2022/01/02 06:48:56;;;;;;;6.87;1.43;;;31.90;99.90;;;;;;5071272;28;20184;-67
2022/01/02 06:51:24;;;;;;;6.27;1.60;;;32.00;99.90;;;;;;5071648;28;20179;-70
2022/01/02 06:53:52;;;;;;;10.20;1.83;;;32.10;99.90;;;;;;5073003;28;20171;-69
2022/01/02 06:56:20;;;;;;;7.50;1.53;;;31.90;99.90;;;;;;5072305;28;20184;-69
2022/01/02 06:58:47;;;;;;;9.37;2.00;;;31.60;99.90;;;;;;5072419;28;20184;-68
2022/01/02 07:01:15;;;;;;;8.83;1.83;;;31.50;99.90;;;;;;5072985;28;20572;-69
2022/01/02 07:03:43;;;;;;;4.40;1.70;;;31.80;99.90;;;;;;5072479;28;20653;-68
2022/01/02 07:06:10;;;;;;;8.53;2.40;;;31.60;99.90;;;;;;5072662;28;20228;-68
2022/01/02 07:08:38;;;;;;;7.37;2.10;;;31.20;99.90;;;;;;5072578;28;20219;-68
2022/01/02 07:11:07;;;;;;;6.67;1.50;;;31.00;99.90;;;;;;5072277;28;20179;-68
2022/01/02 07:13:36;;;;;;;13.10;1.70;;;30.70;99.90;;;;;;5071726;28;20246;-67
2022/01/02 07:16:03;;;;;;;6.77;1.77;;;30.90;99.90;;;;;;5072428;28;20176;-67
2022/01/02 07:18:31;;;;;;;7.07;1.50;;;31.20;99.90;;;;;;5070931;28;20187;-67
2022/01/02 07:20:59;;;;;;;9.33;1.60;;;31.20;99.90;;;;;;5072291;28;20184;-68
2022/01/02 07:23:26;;;;;;;8.63;1.83;;;31.50;99.90;;;;;;5070871;28;20187;-68
2022/01/02 07:25:54;;;;;;;7.20;1.70;;;31.40;99.90;;;;;;5072246;28;20168;-68
2022/01/02 07:28:22;;;;;;;11.90;1.63;;;31.20;99.90;;;;;;5072277;28;20210;-67
2022/01/02 07:30:50;;;;;;;7.50;2.00;;;30.90;99.90;;;;;;5071963;28;20179;-68
2022/01/02 07:33:17;;;;;;;6.33;1.57;;;30.70;99.90;;;;;;5072265;28;20731;-67
2022/01/02 07:35:45;;;;;;;8.00;1.60;;;30.60;99.90;;;;;;5072128;28;20222;-68
2022/01/02 07:38:13;;;;;;;7.23;1.77;;;30.70;99.90;;;;;;5070520;28;20645;-67
2022/01/02 07:40:40;;;;;;;7.73;1.43;;;30.80;99.90;;;;;;5072470;28;20225;-68
2022/01/02 07:43:08;;;;;;;6.93;1.47;;;30.50;99.90;;;;;;5071647;28;20673;-68
2022/01/02 07:45:36;;;;;;;9.13;1.50;;;30.40;99.90;;;;;;5072120;28;20211;-68
2022/01/02 07:48:04;;;;;;;6.20;1.63;;;30.30;99.90;;;;;;5071660;28;20239;-68
2022/01/02 07:50:35;;;;;;;5.37;1.57;;;30.10;99.90;;;;;;5071536;28;20195;-69
2022/01/02 07:53:02;;;;;;;9.27;2.03;;;30.20;99.90;;;;;;5071891;28;20213;-70
2022/01/02 07:55:30;;;;;;;9.73;2.03;;;30.00;99.90;;;;;;5074187;28;20265;-68
2022/01/02 07:57:58;;;;;;;11.00;1.97;;;30.00;99.90;;;;;;5073259;28;20370;-69
2022/01/02 08:00:25;;;;;;;10.00;1.97;;;29.70;99.90;;;;;;5071504;28;20183;-70
2022/01/02 08:02:53;;;;;;;9.07;1.80;;;29.40;99.90;;;;;;5072015;28;20255;-69
2022/01/02 08:05:21;;;;;;;10.17;1.57;;;28.80;99.90;;;;;;5073016;28;20219;-69
2022/01/02 08:07:49;;;;;;;8.57;2.13;;;28.50;99.90;;;;;;5073257;28;20668;-70
2022/01/02 08:10:17;;;;;;;10.33;2.10;;;28.40;99.90;;;;;;5073262;28;20179;-69
2022/01/02 08:12:45;;;;;;;6.60;1.97;;;28.40;99.90;;;;;;5073336;28;20171;-70
2022/01/02 08:15:12;;;;;;;9.93;2.07;;;28.60;99.90;;;;;;5073096;28;20168;-70
2022/01/02 08:17:40;;;;;;;8.33;2.20;;;28.30;99.90;;;;;;5073002;28;20184;-71
2022/01/02 08:20:08;;;;;;;10.23;2.07;;;28.20;99.90;;;;;;5073151;28;20229;-71
2022/01/02 08:22:36;;;;;;;6.90;1.97;;;28.00;99.90;;;;;;5073381;28;20172;-70
2022/01/02 08:25:05;;;;;;;11.47;2.80;;;27.70;99.90;;;;;;5073197;28;20545;-69
2022/01/02 08:27:33;;;;;;;11.93;1.87;;;27.50;99.90;;;;;;5073232;28;20200;-70
2022/01/02 08:30:00;;;;;;;7.20;1.67;;;27.50;99.90;;;;;;5073043;28;20169;-70
2022/01/02 08:32:28;;;;;;;10.80;2.13;;;27.40;99.90;;;;;;5072599;28;20218;-70
2022/01/02 08:34:56;;;;;;;10.87;2.10;;;27.30;99.90;;;;;;5072791;28;20179;-70
2022/01/02 08:37:24;;;;;;;11.03;2.17;;;27.30;99.90;;;;;;5072439;28;20191;-70
2022/01/02 08:39:52;;;;;;;9.27;1.93;;;27.50;99.90;;;;;;5069992;28;20676;-69
2022/01/02 08:42:19;;;;;;;10.63;1.80;;;27.40;99.90;;;;;;5072767;28;20172;-70
2022/01/02 08:44:47;;;;;;;8.57;2.27;;;27.30;99.90;;;;;;5072957;28;20254;-70
2022/01/02 08:47:15;;;;;;;12.33;2.00;;;27.00;99.90;;;;;;5076735;28;20211;-70
2022/01/02 08:49:43;;;;;;;12.73;1.90;;;26.90;99.90;;;;;;5098232;28;20552;-70
2022/01/02 08:52:11;;;;;;;11.13;2.07;;;26.80;99.90;;;;;;5096657;28;20176;-70
2022/01/02 08:54:39;;;;;;;7.47;2.17;;;26.70;99.90;;;;;;5072962;28;20614;-71
2022/01/02 08:57:07;;;;;;;15.03;2.20;;;26.70;99.90;;;;;;5072622;28;20652;-72
2022/01/02 08:59:34;;;;;;;9.93;2.87;;;26.50;99.90;;;;;;5071783;28;20259;-72
2022/01/02 09:02:02;;;;;;;12.67;2.57;;;26.40;99.90;;;;;;5072198;28;20188;-71
2022/01/02 09:04:30;;;;;;;9.70;1.97;;;26.30;99.90;;;;;;5072230;28;20234;-70
2022/01/02 09:06:58;;;;;;;11.97;2.10;;;26.20;99.90;;;;;;5075437;28;20262;-70
2022/01/02 09:09:25;;;;;;;11.83;1.93;;;26.10;99.90;;;;;;5076250;28;20176;-70
2022/01/02 09:11:53;;;;;;;12.70;2.17;;;25.90;99.90;;;;;;5074704;28;20203;-71
2022/01/02 09:14:21;;;;;;;10.60;2.00;;;25.80;99.90;;;;;;5074553;28;20179;-70
2022/01/02 09:16:49;;;;;;;9.47;2.17;;;25.80;99.90;;;;;;5076146;28;20172;-71
2022/01/02 09:19:17;;;;;;;10.63;2.43;;;25.70;99.90;;;;;;5076213;28;20204;-71
2022/01/02 09:21:44;;;;;;;12.80;2.10;;;25.70;99.90;;;;;;5076029;28;20169;-70
2022/01/02 09:24:12;;;;;;;9.43;1.80;;;25.60;99.90;;;;;;5075477;28;20218;-71
2022/01/02 09:26:40;;;;;;;11.13;1.97;;;25.60;99.90;;;;;;5075987;28;20229;-70
2022/01/02 09:29:08;;;;;;;11.57;1.90;;;25.50;99.90;;;;;;5075996;28;20544;-71
2022/01/02 09:31:36;;;;;;;10.90;2.20;;;25.50;99.90;;;;;;5074935;28;20233;-71
2022/01/02 09:34:04;;;;;;;11.13;2.20;;;25.40;99.90;;;;;;5076212;28;20215;-71
2022/01/02 09:36:32;;;;;;;11.17;1.93;;;25.40;99.90;;;;;;5075876;28;20267;-72
2022/01/02 09:38:59;;;;;;;11.83;2.27;;;25.40;99.90;;;;;;5075331;28;20263;-70
2022/01/02 09:41:29;;;;;;;11.47;1.93;;;25.30;99.90;;;;;;5077738;28;20235;-70
2022/01/02 09:44:01;;;;;;;12.90;2.47;;;25.30;99.90;;;;;;5076094;28;20184;-72
2022/01/02 09:46:29;;;;;;;14.23;2.53;;;25.20;99.90;;;;;;5075896;28;20184;-71
2022/01/02 09:48:57;;;;;;;9.57;1.87;;;25.20;99.90;;;;;;5075897;28;20529;-70
2022/01/02 09:51:26;;;;;;;13.67;2.63;;;25.10;99.90;;;;;;5075570;28;20175;-70
2022/01/02 09:53:56;;;;;;;16.77;2.20;;;25.10;99.90;;;;;;5075808;28;20172;-70
2022/01/02 09:56:24;;;;;;;16.87;2.50;;;25.10;99.90;;;;;;5075103;28;20176;-70
2022/01/02 09:58:53;;;;;;;16.10;2.63;;;25.00;99.90;;;;;;5075652;28;20172;-70
2022/01/02 10:01:25;;;;;;;19.13;3.10;;;25.00;99.90;;;;;;5075510;28;20275;-71
2022/01/02 10:03:57;;;;;;;12.93;2.10;;;24.90;99.90;;;;;;5075593;28;20664;-70
2022/01/02 10:06:48;;;;;;;11.53;3.00;;;24.90;99.90;;;;;;5075217;28;20235;-70
2022/01/02 10:09:32;;;;;;;13.00;2.70;;;24.90;99.90;;;;;;5075020;28;20213;-70
2022/01/02 10:12:30;;;;;;;12.57;2.47;;;24.90;99.90;;;;;;5075501;28;20175;-71
2022/01/02 10:15:20;;;;;;;11.73;2.73;;;24.80;99.90;;;;;;5075629;28;20175;-71
2022/01/02 10:17:57;;;;;;;17.67;2.80;;;24.70;99.90;;;;;;5074735;28;20180;-69
2022/01/02 10:20:28;;;;;;;14.63;2.27;;;24.80;99.90;;;;;;5075646;28;20524;-70
2022/01/02 10:23:11;;;;;;;9.10;2.47;;;24.70;99.90;;;;;;5075739;28;20839;-71
2022/01/02 10:25:44;;;;;;;9.50;2.43;;;24.60;99.90;;;;;;5076279;28;20267;-71
2022/01/02 10:28:27;;;;;;;17.00;2.63;;;24.60;99.90;;;;;;5074638;28;20222;-71
2022/01/02 10:31:08;;;;;;;11.20;2.30;;;24.50;99.90;;;;;;5075051;28;20175;-72
2022/01/02 10:34:01;;;;;;;17.60;2.80;;;24.50;99.90;;;;;;5075276;28;20209;-71
2022/01/02 10:36:31;;;;;;;9.53;2.00;;;24.50;99.90;;;;;;5074840;28;20179;-71
2022/01/02 10:39:03;;;;;;;9.67;1.93;;;24.40;99.90;;;;;;5075210;28;20172;-70
2022/01/02 10:41:39;;;;;;;8.27;2.00;;;24.40;99.90;;;;;;5074378;28;20194;-70
2022/01/02 10:44:34;;;;;;;10.43;2.77;;;24.30;99.90;;;;;;5074480;28;20286;-70
2022/01/02 10:47:24;;;;;;;18.03;2.67;;;24.30;99.90;;;;;;5075098;28;20209;-70
2022/01/02 10:50:03;;;;;;;11.53;2.33;;;24.20;99.90;;;;;;5073360;28;20184;-69
2022/01/02 10:52:46;;;;;;;14.40;2.23;;;24.20;99.90;;;;;;5073425;28;20265;-70
2022/01/02 10:55:24;;;;;;;9.13;2.37;;;24.20;99.90;;;;;;5074231;28;20194;-70
2022/01/02 10:57:58;;;;;;;10.93;2.13;;;24.20;99.90;;;;;;5072440;28;20700;-70
2022/01/02 11:00:29;;;;;;;11.80;2.17;;;24.20;99.90;;;;;;5074457;28;20222;-70
2022/01/02 11:02:59;;;;;;;10.13;1.90;;;24.20;99.90;;;;;;5074454;28;20233;-72
2022/01/02 11:05:29;;;;;;;15.30;2.87;;;24.10;99.90;;;;;;5073874;28;20775;-70
2022/01/02 11:08:02;;;;;;;11.40;2.20;;;24.10;99.90;;;;;;5074349;28;20211;-71
2022/01/02 11:10:35;;;;;;;11.23;2.20;;;24.00;99.90;;;;;;5074376;28;20265;-71
2022/01/02 11:13:05;;;;;;;11.73;1.83;;;24.00;99.90;;;;;;5073699;28;20182;-70
2022/01/02 11:15:34;;;;;;;9.77;1.90;;;23.90;99.90;;;;;;5071312;28;20651;-71
2022/01/02 11:18:02;;;;;;;16.07;2.30;;;23.80;99.90;;;;;;5069178;28;20190;-71
2022/01/02 11:20:33;;;;;;;11.37;2.20;;;23.80;99.90;;;;;;5073162;28;20194;-70
2022/01/02 11:23:07;;;;;;;13.83;2.70;;;23.80;99.90;;;;;;5073252;28;20540;-70
2022/01/02 11:25:50;;;;;;;15.50;2.97;;;23.70;99.90;;;;;;5073595;28;20180;-71
2022/01/02 11:28:32;;;;;;;8.10;2.00;;;23.60;99.90;;;;;;5072506;28;20214;-71
2022/01/02 11:31:00;;;;;;;5.47;1.70;;;23.60;99.90;;;;;;5070699;28;20259;-72
2022/01/02 11:33:45;;;;;;;11.43;2.10;;;23.60;99.90;;;;;;5073088;28;20176;-72
2022/01/02 11:36:33;;;;;;;9.40;2.07;;;23.60;99.90;;;;;;5074178;28;20183;-71
2022/01/02 11:39:11;;;;;;;15.93;2.60;;;23.60;99.90;;;;;;5073379;28;20710;-72
2022/01/02 11:41:41;;;;;;;10.70;2.63;;;23.60;99.90;;;;;;5072414;28;20195;-70
2022/01/02 11:44:13;;;;;;;10.73;2.30;;;23.60;99.90;;;;;;5073710;28;20253;-71
2022/01/02 11:46:47;;;;;;;13.27;1.77;;;23.60;99.90;;;;;;5074074;28;20184;-70
2022/01/02 11:49:20;;;;;;;13.47;3.37;;;23.50;99.90;;;;;;5073762;28;20225;-71
2022/01/02 11:52:01;;;;;;;9.87;2.37;;;23.50;99.90;;;;;;5073571;28;20538;-72
2022/01/02 11:54:32;;;;;;;11.87;2.30;;;23.40;99.90;;;;;;5073740;28;20195;-71
2022/01/02 11:57:05;;;;;;;8.23;2.20;;;23.40;99.90;;;;;;5072261;28;20183;-71
2022/01/02 11:59:42;;;;;;;17.27;2.53;;;23.40;99.90;;;;;;5073560;28;20265;-70
2022/01/02 12:02:19;;;;;;;8.60;1.93;;;23.40;99.90;;;;;;5073820;28;20182;-71
2022/01/02 12:05:14;;;;;;;10.70;2.47;;;23.40;99.90;;;;;;5074039;28;20256;-71
2022/01/02 12:07:53;;;;;;;9.60;1.57;;;23.40;99.90;;;;;;5073101;28;20269;-72
2022/01/02 12:10:24;;;;;;;13.47;2.53;;;23.40;99.90;;;;;;5072880;28;20641;-71
2022/01/02 12:12:58;;;;;;;11.87;1.93;;;23.30;99.90;;;;;;5073232;28;20226;-71
2022/01/02 12:15:45;;;;;;;14.17;2.47;;;23.20;99.90;;;;;;5073686;28;20186;-71
2022/01/02 12:18:33;;;;;;;8.00;1.73;;;23.20;99.90;;;;;;5073421;28;20191;-72
2022/01/02 12:21:01;;;;;;;9.83;2.10;;;23.10;99.90;;;;;;5073496;28;20248;-71
2022/01/02 12:23:31;;;;;;;11.90;2.03;;;23.10;99.90;;;;;;5073553;28;20534;-72
2022/01/02 12:25:59;;;;;;;11.83;2.13;;;23.00;99.90;;;;;;5073243;28;20207;-71
2022/01/02 12:28:30;;;;;;;10.80;2.17;;;22.90;99.90;;;;;;5073003;28;20215;-72
2022/01/02 12:30:58;;;;;;;9.83;2.97;;;23.00;99.90;;;;;;5073274;28;20210;-71
2022/01/02 12:33:26;;;;;;;14.07;2.70;;;22.90;99.90;;;;;;5073337;28;20202;-71
2022/01/02 12:35:54;;;;;;;18.03;2.07;;;22.90;99.90;;;;;;5072508;28;20255;-72
2022/01/02 12:38:22;;;;;;;9.83;1.83;;;22.90;99.90;;;;;;5072798;28;20188;-71
2022/01/02 12:40:53;;;;;;;14.93;2.60;;;22.90;99.90;;;;;;5076260;28;20168;-71
2022/01/02 12:43:26;;;;;;;16.30;2.93;;;22.80;99.90;;;;;;5077140;28;20228;-71
2022/01/02 12:45:57;;;;;;;15.23;2.63;;;22.80;99.90;;;;;;5076741;28;20191;-71
2022/01/02 12:48:36;;;;;;;12.03;2.63;;;22.70;99.90;;;;;;5077070;28;20230;-71
2022/01/02 12:51:14;;;;;;;17.00;3.00;;;22.70;99.90;;;;;;5076821;28;20210;-71
2022/01/02 12:53:42;;;;;;;9.50;2.63;;;22.60;99.90;;;;;;5076997;28;20625;-72
2022/01/02 12:56:09;;;;;;;13.10;2.33;;;22.60;99.90;;;;;;5075172;28;20187;-71
2022/01/02 12:58:37;;;;;;;11.40;2.50;;;22.60;99.90;;;;;;5076369;28;20652;-70
2022/01/02 13:01:08;;;;;;;16.00;2.77;;;22.50;99.90;;;;;;5077009;28;20180;-70
2022/01/02 13:03:37;;;;;;;12.90;2.30;;;22.60;99.90;;;;;;5076798;28;20168;-71
2022/01/02 13:06:04;;;;;;;14.67;3.43;;;22.60;99.90;;;;;;5076742;28;20232;-70